Weather at UYEM HELIPORT

Public forecast

Using degrees Celsius for public forecast. Weather courtesy of forecast.io.

Closest aviation weather report (METAR) to UYEM HELIPORT

Closest report is Antalya International Airport, 10.0 nm (18.6 km) ESE. Retrieved 2021/10/28 17:20 UTC (38 minutes ago):

LTAI 281720Z 06005KT CAVOK 19/12 Q1016 NOSIG RMK RWY18C 03003KT 360V060 RWY36R 06005KT RWY18L 02004KT

Closest aviation forecast (TAF) to UYEM HELIPORT

Closest forecast is Antalya International Airport, 10.0 nm (18.6 km) ESE. Retrieved 2021/10/28 12:03 UTC (6 hours ago):

TAF LTAI 281040Z 2812/2912 18010KT 9999 FEW030 BECMG 2815/2818 34008KT CAVOK BECMG 2909/2912 18010KT